sensor_id;sensor_type;location;lat;lon;timestamp;P1;durP1;ratioP1;P2;durP2;ratioP2
36383;SDS011;22418;51.210;6.976;2023-04-28T22:04:16;9.02;;;6.55;;
36383;SDS011;22418;51.210;6.976;2023-04-28T22:06:47;12.97;;;7.07;;
36383;SDS011;22418;51.210;6.976;2023-04-28T22:09:17;11.17;;;7.17;;
36383;SDS011;22418;51.210;6.976;2023-04-28T22:11:48;8.50;;;6.50;;
36383;SDS011;22418;51.210;6.976;2023-04-28T22:14:19;8.70;;;7.40;;
36383;SDS011;22418;51.210;6.976;2023-04-28T22:16:49;9.57;;;6.83;;
36383;SDS011;22418;51.210;6.976;2023-04-28T22:19:20;9.13;;;7.00;;
36383;SDS011;22418;51.210;6.976;2023-04-28T22:21:51;10.52;;;7.70;;
36383;SDS011;22418;51.210;6.976;2023-04-28T22:24:21;10.90;;;7.77;;
36383;SDS011;22418;51.210;6.976;2023-04-28T22:26:52;10.53;;;7.97;;
36383;SDS011;22418;51.210;6.976;2023-04-28T22:29:23;10.25;;;7.93;;
36383;SDS011;22418;51.210;6.976;2023-04-28T22:31:55;10.93;;;6.97;;
36383;SDS011;22418;51.210;6.976;2023-04-28T22:34:27;12.38;;;9.60;;
36383;SDS011;22418;51.210;6.976;2023-04-28T22:36:57;11.48;;;8.25;;
36383;SDS011;22418;51.210;6.976;2023-04-28T22:39:28;12.80;;;9.27;;
36383;SDS011;22418;51.210;6.976;2023-04-28T22:41:59;11.43;;;8.53;;
36383;SDS011;22418;51.210;6.976;2023-04-28T22:44:29;11.40;;;8.87;;
36383;SDS011;22418;51.210;6.976;2023-04-28T22:47:00;14.50;;;10.60;;
36383;SDS011;22418;51.210;6.976;2023-04-28T22:49:31;15.50;;;10.85;;
36383;SDS011;22418;51.210;6.976;2023-04-28T22:52:01;13.97;;;9.60;;
36383;SDS011;22418;51.210;6.976;2023-04-28T22:54:33;12.85;;;10.18;;
36383;SDS011;22418;51.210;6.976;2023-04-28T22:57:03;16.80;;;11.40;;
36383;SDS011;22418;51.210;6.976;2023-04-28T22:59:34;18.83;;;10.70;;
36383;SDS011;22418;51.210;6.976;2023-04-28T23:02:04;15.07;;;11.23;;
36383;SDS011;22418;51.210;6.976;2023-04-28T23:04:35;16.43;;;12.13;;
36383;SDS011;22418;51.210;6.976;2023-04-28T23:07:05;15.77;;;10.70;;
36383;SDS011;22418;51.210;6.976;2023-04-28T23:09:36;16.85;;;12.73;;
36383;SDS011;22418;51.210;6.976;2023-04-28T23:12:07;19.17;;;12.10;;
36383;SDS011;22418;51.210;6.976;2023-04-28T23:14:38;16.97;;;11.03;;
36383;SDS011;22418;51.210;6.976;2023-04-28T23:17:08;17.53;;;12.33;;
36383;SDS011;22418;51.210;6.976;2023-04-28T23:19:39;17.47;;;12.47;;
36383;SDS011;22418;51.210;6.976;2023-04-28T23:22:09;18.13;;;11.93;;
36383;SDS011;22418;51.210;6.976;2023-04-28T23:24:40;17.40;;;12.17;;
36383;SDS011;22418;51.210;6.976;2023-04-28T23:27:11;17.08;;;12.05;;
36383;SDS011;22418;51.210;6.976;2023-04-28T23:29:41;18.20;;;12.00;;
36383;SDS011;22418;51.210;6.976;2023-04-28T23:32:12;16.07;;;10.50;;
36383;SDS011;22418;51.210;6.976;2023-04-28T23:34:43;17.63;;;10.13;;
36383;SDS011;22418;51.210;6.976;2023-04-28T23:37:13;15.77;;;10.23;;
36383;SDS011;22418;51.210;6.976;2023-04-28T23:39:44;15.20;;;9.70;;
36383;SDS011;22418;51.210;6.976;2023-04-28T23:42:14;15.97;;;9.57;;
36383;SDS011;22418;51.210;6.976;2023-04-28T23:44:45;16.23;;;9.30;;
36383;SDS011;22418;51.210;6.976;2023-04-28T23:47:15;15.17;;;9.83;;
36383;SDS011;22418;51.210;6.976;2023-04-28T23:49:46;15.50;;;9.40;;
36383;SDS011;22418;51.210;6.976;2023-04-28T23:52:17;17.47;;;10.17;;
36383;SDS011;22418;51.210;6.976;2023-04-28T23:54:48;14.27;;;8.93;;
36383;SDS011;22418;51.210;6.976;2023-04-28T23:57:21;17.17;;;9.63;;
36383;SDS011;22418;51.210;6.976;2023-04-28T23:59:51;17.05;;;10.00;;
